sensor_id;sensor_type;location;lat;lon;timestamp;temperature;humidity
981;DHT22;479;53.514;9.994;2023-04-03T00:00:30;2.50;99.90
981;DHT22;479;53.514;9.994;2023-04-03T00:02:57;2.40;99.90
981;DHT22;479;53.514;9.994;2023-04-03T00:05:24;2.40;99.90
981;DHT22;479;53.514;9.994;2023-04-03T00:07:53;2.40;99.90
981;DHT22;479;53.514;9.994;2023-04-03T00:10:20;2.50;99.90
981;DHT22;479;53.514;9.994;2023-04-03T00:12:47;2.50;99.90
981;DHT22;479;53.514;9.994;2023-04-03T00:15:14;2.50;99.90
981;DHT22;479;53.514;9.994;2023-04-03T00:17:41;2.60;99.90
981;DHT22;479;53.514;9.994;2023-04-03T00:20:08;2.50;99.90
981;DHT22;479;53.514;9.994;2023-04-03T00:22:35;2.70;99.90
981;DHT22;479;53.514;9.994;2023-04-03T00:25:04;2.70;99.90
981;DHT22;479;53.514;9.994;2023-04-03T00:27:31;2.60;99.90
981;DHT22;479;53.514;9.994;2023-04-03T00:29:57;2.50;99.90
981;DHT22;479;53.514;9.994;2023-04-03T00:32:24;2.50;99.90
981;DHT22;479;53.514;9.994;2023-04-03T00:34:51;2.50;99.90
981;DHT22;479;53.514;9.994;2023-04-03T00:37:18;2.40;99.90
981;DHT22;479;53.514;9.994;2023-04-03T00:39:46;2.40;99.90
981;DHT22;479;53.514;9.994;2023-04-03T00:42:14;2.40;99.90
981;DHT22;479;53.514;9.994;2023-04-03T00:47:46;2.30;99.90
981;DHT22;479;53.514;9.994;2023-04-03T00:50:13;2.50;99.90
981;DHT22;479;53.514;9.994;2023-04-03T00:52:40;2.50;99.90
981;DHT22;479;53.514;9.994;2023-04-03T00:55:08;2.40;99.90
981;DHT22;479;53.514;9.994;2023-04-03T00:57:37;2.30;99.90
981;DHT22;479;53.514;9.994;2023-04-03T01:00:08;2.30;99.90
981;DHT22;479;53.514;9.994;2023-04-03T01:02:36;2.30;99.90
981;DHT22;479;53.514;9.994;2023-04-03T01:05:04;2.30;99.90
981;DHT22;479;53.514;9.994;2023-04-03T01:07:31;2.30;99.90
981;DHT22;479;53.514;9.994;2023-04-03T01:10:02;2.30;99.90
981;DHT22;479;53.514;9.994;2023-04-03T01:12:31;2.30;99.90
981;DHT22;479;53.514;9.994;2023-04-03T01:15:04;2.30;99.90
981;DHT22;479;53.514;9.994;2023-04-03T01:17:33;2.40;99.90
981;DHT22;479;53.514;9.994;2023-04-03T01:23:21;2.70;99.90
981;DHT22;479;53.514;9.994;2023-04-03T01:25:50;2.60;99.90
981;DHT22;479;53.514;9.994;2023-04-03T01:28:21;2.50;99.90
981;DHT22;479;53.514;9.994;2023-04-03T01:30:55;2.40;99.90
981;DHT22;479;53.514;9.994;2023-04-03T01:33:25;2.40;99.90
981;DHT22;479;53.514;9.994;2023-04-03T01:35:52;2.40;99.90
981;DHT22;479;53.514;9.994;2023-04-03T01:38:19;2.40;99.90
981;DHT22;479;53.514;9.994;2023-04-03T01:40:46;2.40;99.90
981;DHT22;479;53.514;9.994;2023-04-03T01:43:13;2.40;99.90
981;DHT22;479;53.514;9.994;2023-04-03T01:45:40;2.30;99.90
981;DHT22;479;53.514;9.994;2023-04-03T01:48:07;2.40;99.90
981;DHT22;479;53.514;9.994;2023-04-03T01:50:35;2.40;99.90
981;DHT22;479;53.514;9.994;2023-04-03T01:53:02;2.30;99.90
981;DHT22;479;53.514;9.994;2023-04-03T01:55:29;2.40;99.90
981;DHT22;479;53.514;9.994;2023-04-03T01:57:59;2.30;99.90
981;DHT22;479;53.514;9.994;2023-04-03T02:00:26;2.40;99.90
981;DHT22;479;53.514;9.994;2023-04-03T02:02:53;2.40;99.90
981;DHT22;479;53.514;9.994;2023-04-03T02:05:20;2.40;99.90
981;DHT22;479;53.514;9.994;2023-04-03T02:07:48;2.30;99.90
981;DHT22;479;53.514;9.994;2023-04-03T02:10:15;2.30;99.90
981;DHT22;479;53.514;9.994;2023-04-03T02:12:42;2.30;99.90
981;DHT22;479;53.514;9.994;2023-04-03T02:15:09;2.40;99.90
981;DHT22;479;53.514;9.994;2023-04-03T02:17:36;2.40;99.90
981;DHT22;479;53.514;9.994;2023-04-03T02:20:04;2.50;99.90
981;DHT22;479;53.514;9.994;2023-04-03T02:22:32;2.40;99.90
981;DHT22;479;53.514;9.994;2023-04-03T02:25:00;2.30;99.90
981;DHT22;479;53.514;9.994;2023-04-03T02:27:27;2.40;99.90
981;DHT22;479;53.514;9.994;2023-04-03T02:29:54;2.30;99.90
981;DHT22;479;53.514;9.994;2023-04-03T02:32:21;2.40;99.90
981;DHT22;479;53.514;9.994;2023-04-03T02:34:48;2.30;99.90
981;DHT22;479;53.514;9.994;2023-04-03T02:37:16;2.20;99.90
981;DHT22;479;53.514;9.994;2023-04-03T02:39:45;2.40;99.90
981;DHT22;479;53.514;9.994;2023-04-03T02:42:14;2.40;99.90
981;DHT22;479;53.514;9.994;2023-04-03T02:44:41;2.30;99.90
981;DHT22;479;53.514;9.994;2023-04-03T02:47:09;2.30;99.90
981;DHT22;479;53.514;9.994;2023-04-03T02:49:36;2.40;99.90
981;DHT22;479;53.514;9.994;2023-04-03T02:52:03;2.60;99.90
981;DHT22;479;53.514;9.994;2023-04-03T02:54:30;2.80;99.90
981;DHT22;479;53.514;9.994;2023-04-03T02:57:01;2.90;99.90
981;DHT22;479;53.514;9.994;2023-04-03T02:59:29;2.80;99.90
981;DHT22;479;53.514;9.994;2023-04-03T03:01:56;2.70;99.90
981;DHT22;479;53.514;9.994;2023-04-03T03:04:23;2.60;99.90
981;DHT22;479;53.514;9.994;2023-04-03T03:06:50;2.50;99.90
981;DHT22;479;53.514;9.994;2023-04-03T03:09:18;2.40;99.90
981;DHT22;479;53.514;9.994;2023-04-03T03:11:45;2.40;99.90
981;DHT22;479;53.514;9.994;2023-04-03T03:14:12;2.30;99.90
981;DHT22;479;53.514;9.994;2023-04-03T03:16:40;2.60;99.90
981;DHT22;479;53.514;9.994;2023-04-03T03:19:07;2.70;99.90
981;DHT22;479;53.514;9.994;2023-04-03T03:21:34;2.60;99.90
981;DHT22;479;53.514;9.994;2023-04-03T03:24:01;2.40;99.90
981;DHT22;479;53.514;9.994;2023-04-03T03:26:28;2.40;99.90
981;DHT22;479;53.514;9.994;2023-04-03T03:28:55;2.50;99.90
981;DHT22;479;53.514;9.994;2023-04-03T03:31:22;2.50;99.90
981;DHT22;479;53.514;9.994;2023-04-03T03:33:51;2.60;99.90
981;DHT22;479;53.514;9.994;2023-04-03T03:36:18;2.60;99.90
981;DHT22;479;53.514;9.994;2023-04-03T03:38:48;2.80;99.90
981;DHT22;479;53.514;9.994;2023-04-03T03:41:14;2.70;99.90
981;DHT22;479;53.514;9.994;2023-04-03T03:43:43;2.90;99.90
981;DHT22;479;53.514;9.994;2023-04-03T03:46:12;2.50;99.90
981;DHT22;479;53.514;9.994;2023-04-03T03:48:39;2.40;99.90
981;DHT22;479;53.514;9.994;2023-04-03T03:51:08;2.30;99.90
981;DHT22;479;53.514;9.994;2023-04-03T03:53:36;2.20;99.90
981;DHT22;479;53.514;9.994;2023-04-03T03:56:06;2.10;99.90
981;DHT22;479;53.514;9.994;2023-04-03T03:58:35;2.10;99.90
981;DHT22;479;53.514;9.994;2023-04-03T04:01:03;2.10;99.90
981;DHT22;479;53.514;9.994;2023-04-03T04:03:31;2.20;99.90
981;DHT22;479;53.514;9.994;2023-04-03T04:05:58;2.20;99.90
981;DHT22;479;53.514;9.994;2023-04-03T04:08:27;2.10;99.90
981;DHT22;479;53.514;9.994;2023-04-03T04:10:53;2.10;99.90
981;DHT22;479;53.514;9.994;2023-04-03T04:13:20;2.00;99.90
981;DHT22;479;53.514;9.994;2023-04-03T04:15:48;2.00;99.90
981;DHT22;479;53.514;9.994;2023-04-03T04:18:16;2.00;99.90
981;DHT22;479;53.514;9.994;2023-04-03T04:20:47;2.00;99.90
981;DHT22;479;53.514;9.994;2023-04-03T04:23:16;2.00;99.90
981;DHT22;479;53.514;9.994;2023-04-03T04:25:46;1.90;99.90
981;DHT22;479;53.514;9.994;2023-04-03T04:28:13;2.00;99.90
981;DHT22;479;53.514;9.994;2023-04-03T04:30:41;2.00;99.90
981;DHT22;479;53.514;9.994;2023-04-03T04:33:08;2.00;99.90
981;DHT22;479;53.514;9.994;2023-04-03T04:35:36;2.00;99.90
981;DHT22;479;53.514;9.994;2023-04-03T04:38:03;2.00;99.90
981;DHT22;479;53.514;9.994;2023-04-03T04:40:30;2.00;99.90
981;DHT22;479;53.514;9.994;2023-04-03T04:42:59;2.00;99.90
981;DHT22;479;53.514;9.994;2023-04-03T04:45:26;2.00;99.90
981;DHT22;479;53.514;9.994;2023-04-03T04:47:55;2.00;99.90
981;DHT22;479;53.514;9.994;2023-04-03T04:50:23;2.00;99.90
981;DHT22;479;53.514;9.994;2023-04-03T04:52:50;2.10;99.90
981;DHT22;479;53.514;9.994;2023-04-03T04:55:17;2.10;99.90
981;DHT22;479;53.514;9.994;2023-04-03T04:57:44;2.10;99.90
981;DHT22;479;53.514;9.994;2023-04-03T05:00:14;2.10;99.90
981;DHT22;479;53.514;9.994;2023-04-03T05:02:41;2.10;99.90
981;DHT22;479;53.514;9.994;2023-04-03T05:05:08;2.00;99.90
981;DHT22;479;53.514;9.994;2023-04-03T05:07:36;2.00;99.90
981;DHT22;479;53.514;9.994;2023-04-03T05:10:04;2.00;99.90
981;DHT22;479;53.514;9.994;2023-04-03T05:12:32;2.00;99.90
981;DHT22;479;53.514;9.994;2023-04-03T05:15:01;2.00;99.90
981;DHT22;479;53.514;9.994;2023-04-03T05:17:31;2.00;99.90
981;DHT22;479;53.514;9.994;2023-04-03T05:19:58;2.00;99.90
981;DHT22;479;53.514;9.994;2023-04-03T05:22:27;2.00;99.90
981;DHT22;479;53.514;9.994;2023-04-03T05:24:58;2.00;99.90
981;DHT22;479;53.514;9.994;2023-04-03T05:27:26;2.10;99.90
981;DHT22;479;53.514;9.994;2023-04-03T05:29:55;2.20;99.90
981;DHT22;479;53.514;9.994;2023-04-03T05:32:23;2.20;99.90
981;DHT22;479;53.514;9.994;2023-04-03T05:35:00;2.10;99.90
981;DHT22;479;53.514;9.994;2023-04-03T05:37:27;2.20;99.90
981;DHT22;479;53.514;9.994;2023-04-03T05:39:54;2.20;99.90
981;DHT22;479;53.514;9.994;2023-04-03T05:42:22;2.30;99.90
981;DHT22;479;53.514;9.994;2023-04-03T05:44:49;2.40;99.90
981;DHT22;479;53.514;9.994;2023-04-03T05:47:16;2.40;99.90
981;DHT22;479;53.514;9.994;2023-04-03T05:49:43;2.50;99.90
981;DHT22;479;53.514;9.994;2023-04-03T05:52:20;2.50;99.90
981;DHT22;479;53.514;9.994;2023-04-03T05:54:47;2.50;99.90
981;DHT22;479;53.514;9.994;2023-04-03T05:57:20;2.60;99.90
981;DHT22;479;53.514;9.994;2023-04-03T05:59:47;2.70;99.90
981;DHT22;479;53.514;9.994;2023-04-03T06:02:16;2.80;99.90
981;DHT22;479;53.514;9.994;2023-04-03T06:04:45;2.80;99.90
981;DHT22;479;53.514;9.994;2023-04-03T06:07:16;3.10;99.90
981;DHT22;479;53.514;9.994;2023-04-03T06:09:44;3.10;99.90
981;DHT22;479;53.514;9.994;2023-04-03T06:12:11;3.30;99.90
981;DHT22;479;53.514;9.994;2023-04-03T06:14:38;3.20;99.90
981;DHT22;479;53.514;9.994;2023-04-03T06:17:05;3.30;99.90
981;DHT22;479;53.514;9.994;2023-04-03T06:19:34;3.30;99.90
981;DHT22;479;53.514;9.994;2023-04-03T06:22:01;3.30;99.90
981;DHT22;479;53.514;9.994;2023-04-03T06:24:31;3.30;99.90
981;DHT22;479;53.514;9.994;2023-04-03T06:26:58;3.40;99.90
981;DHT22;479;53.514;9.994;2023-04-03T06:29:25;3.50;99.90
981;DHT22;479;53.514;9.994;2023-04-03T06:31:52;3.50;99.90
981;DHT22;479;53.514;9.994;2023-04-03T06:34:19;3.60;99.90
981;DHT22;479;53.514;9.994;2023-04-03T06:36:46;3.70;99.90
981;DHT22;479;53.514;9.994;2023-04-03T06:39:16;3.70;99.90
981;DHT22;479;53.514;9.994;2023-04-03T06:41:44;3.80;99.90
981;DHT22;479;53.514;9.994;2023-04-03T06:44:11;3.90;99.90
981;DHT22;479;53.514;9.994;2023-04-03T06:46:42;4.00;99.90
981;DHT22;479;53.514;9.994;2023-04-03T06:49:09;4.10;99.90
981;DHT22;479;53.514;9.994;2023-04-03T06:51:36;4.20;99.90
981;DHT22;479;53.514;9.994;2023-04-03T06:54:04;4.30;99.90
981;DHT22;479;53.514;9.994;2023-04-03T06:56:32;4.70;99.90
981;DHT22;479;53.514;9.994;2023-04-03T06:59:01;5.70;99.90
981;DHT22;479;53.514;9.994;2023-04-03T07:01:29;6.70;99.90
981;DHT22;479;53.514;9.994;2023-04-03T07:03:56;7.50;99.90
981;DHT22;479;53.514;9.994;2023-04-03T07:06:24;8.10;99.90
981;DHT22;479;53.514;9.994;2023-04-03T07:08:52;8.60;99.90
981;DHT22;479;53.514;9.994;2023-04-03T07:11:19;8.80;99.90
981;DHT22;479;53.514;9.994;2023-04-03T07:13:46;8.90;99.90
981;DHT22;479;53.514;9.994;2023-04-03T07:16:15;9.30;97.10
981;DHT22;479;53.514;9.994;2023-04-03T07:18:42;9.60;94.90
981;DHT22;479;53.514;9.994;2023-04-03T07:21:09;9.50;93.60
981;DHT22;479;53.514;9.994;2023-04-03T07:23:36;9.50;92.20
981;DHT22;479;53.514;9.994;2023-04-03T07:26:03;9.70;92.20
981;DHT22;479;53.514;9.994;2023-04-03T07:28:30;10.10;90.00
981;DHT22;479;53.514;9.994;2023-04-03T07:31:01;9.90;86.60
981;DHT22;479;53.514;9.994;2023-04-03T07:33:30;10.40;84.70
981;DHT22;479;53.514;9.994;2023-04-03T07:35:58;10.70;81.40
981;DHT22;479;53.514;9.994;2023-04-03T07:38:25;10.80;78.50
981;DHT22;479;53.514;9.994;2023-04-03T07:40:52;10.60;78.30
981;DHT22;479;53.514;9.994;2023-04-03T07:43:21;10.90;75.80
981;DHT22;479;53.514;9.994;2023-04-03T07:45:48;10.90;74.60
981;DHT22;479;53.514;9.994;2023-04-03T07:48:17;10.80;74.30
981;DHT22;479;53.514;9.994;2023-04-03T07:50:46;11.30;72.40
981;DHT22;479;53.514;9.994;2023-04-03T07:53:13;11.90;67.70
981;DHT22;479;53.514;9.994;2023-04-03T07:55:40;12.60;65.30
981;DHT22;479;53.514;9.994;2023-04-03T07:58:09;12.70;61.00
981;DHT22;479;53.514;9.994;2023-04-03T08:00:36;12.80;57.20
981;DHT22;479;53.514;9.994;2023-04-03T08:03:04;12.80;55.30
981;DHT22;479;53.514;9.994;2023-04-03T08:05:31;13.10;55.10
981;DHT22;479;53.514;9.994;2023-04-03T08:07:59;13.50;53.20
981;DHT22;479;53.514;9.994;2023-04-03T08:10:26;13.10;50.50
981;DHT22;479;53.514;9.994;2023-04-03T08:12:53;12.70;51.20
981;DHT22;479;53.514;9.994;2023-04-03T08:15:20;13.10;50.50
981;DHT22;479;53.514;9.994;2023-04-03T08:17:47;13.40;49.80
981;DHT22;479;53.514;9.994;2023-04-03T08:20:15;13.30;48.80
981;DHT22;479;53.514;9.994;2023-04-03T08:22:42;13.50;49.30
981;DHT22;479;53.514;9.994;2023-04-03T08:25:10;13.60;48.20
981;DHT22;479;53.514;9.994;2023-04-03T08:27:37;13.80;48.10
981;DHT22;479;53.514;9.994;2023-04-03T08:30:05;14.40;45.90
981;DHT22;479;53.514;9.994;2023-04-03T08:32:33;14.00;44.80
981;DHT22;479;53.514;9.994;2023-04-03T08:35:01;14.00;44.70
981;DHT22;479;53.514;9.994;2023-04-03T08:37:28;13.90;44.00
981;DHT22;479;53.514;9.994;2023-04-03T08:39:55;13.80;44.50
981;DHT22;479;53.514;9.994;2023-04-03T08:42:35;14.10;44.20
981;DHT22;479;53.514;9.994;2023-04-03T08:45:09;14.20;43.60
981;DHT22;479;53.514;9.994;2023-04-03T08:47:39;13.90;42.80
981;DHT22;479;53.514;9.994;2023-04-03T08:50:10;14.20;41.30
981;DHT22;479;53.514;9.994;2023-04-03T08:52:40;14.50;41.30
981;DHT22;479;53.514;9.994;2023-04-03T08:55:19;14.40;40.90
981;DHT22;479;53.514;9.994;2023-04-03T08:57:51;14.80;41.30
981;DHT22;479;53.514;9.994;2023-04-03T09:00:23;14.70;40.90
981;DHT22;479;53.514;9.994;2023-04-03T09:02:53;15.00;38.90
981;DHT22;479;53.514;9.994;2023-04-03T09:05:39;14.80;37.40
981;DHT22;479;53.514;9.994;2023-04-03T09:08:18;14.80;38.40
981;DHT22;479;53.514;9.994;2023-04-03T09:10:49;14.70;37.90
981;DHT22;479;53.514;9.994;2023-04-03T09:13:26;14.70;38.50
981;DHT22;479;53.514;9.994;2023-04-03T09:15:56;15.30;37.50
981;DHT22;479;53.514;9.994;2023-04-03T09:18:30;15.20;35.30
981;DHT22;479;53.514;9.994;2023-04-03T09:21:04;15.10;33.50
981;DHT22;479;53.514;9.994;2023-04-03T09:23:38;14.90;33.80
981;DHT22;479;53.514;9.994;2023-04-03T09:26:11;14.90;33.10
981;DHT22;479;53.514;9.994;2023-04-03T09:28:43;14.80;32.10
981;DHT22;479;53.514;9.994;2023-04-03T09:31:19;14.80;31.40
981;DHT22;479;53.514;9.994;2023-04-03T09:33:48;14.90;32.30
981;DHT22;479;53.514;9.994;2023-04-03T09:36:38;15.20;31.00
981;DHT22;479;53.514;9.994;2023-04-03T09:39:07;15.20;31.40
981;DHT22;479;53.514;9.994;2023-04-03T09:41:36;14.60;31.00
981;DHT22;479;53.514;9.994;2023-04-03T09:44:23;13.90;32.80
981;DHT22;479;53.514;9.994;2023-04-03T09:46:50;14.20;32.90
981;DHT22;479;53.514;9.994;2023-04-03T09:49:17;14.50;32.20
981;DHT22;479;53.514;9.994;2023-04-03T09:51:45;14.90;32.50
981;DHT22;479;53.514;9.994;2023-04-03T09:54:33;14.80;31.20
981;DHT22;479;53.514;9.994;2023-04-03T09:57:06;14.60;33.20
981;DHT22;479;53.514;9.994;2023-04-03T09:59:35;14.60;32.80
981;DHT22;479;53.514;9.994;2023-04-03T10:02:14;14.80;31.10
981;DHT22;479;53.514;9.994;2023-04-03T10:04:47;15.00;30.80
981;DHT22;479;53.514;9.994;2023-04-03T10:07:27;15.20;29.70
981;DHT22;479;53.514;9.994;2023-04-03T10:09:56;14.90;29.80
981;DHT22;479;53.514;9.994;2023-04-03T10:12:23;15.00;30.40
981;DHT22;479;53.514;9.994;2023-04-03T10:14:56;14.80;29.70
981;DHT22;479;53.514;9.994;2023-04-03T10:17:33;14.70;30.20
981;DHT22;479;53.514;9.994;2023-04-03T10:20:08;14.60;31.00
981;DHT22;479;53.514;9.994;2023-04-03T10:22:42;13.90;31.20
981;DHT22;479;53.514;9.994;2023-04-03T10:25:20;14.30;31.20
981;DHT22;479;53.514;9.994;2023-04-03T10:27:55;14.30;30.40
981;DHT22;479;53.514;9.994;2023-04-03T10:30:34;14.60;30.00
981;DHT22;479;53.514;9.994;2023-04-03T10:33:17;14.80;29.70
981;DHT22;479;53.514;9.994;2023-04-03T10:35:55;14.80;29.70
981;DHT22;479;53.514;9.994;2023-04-03T10:38:33;14.80;28.80
981;DHT22;479;53.514;9.994;2023-04-03T10:41:10;14.70;29.00
981;DHT22;479;53.514;9.994;2023-04-03T10:43:44;14.60;29.50
981;DHT22;479;53.514;9.994;2023-04-03T10:46:23;14.90;29.80
981;DHT22;479;53.514;9.994;2023-04-03T10:49:05;14.80;29.00
981;DHT22;479;53.514;9.994;2023-04-03T10:51:41;14.00;29.90
981;DHT22;479;53.514;9.994;2023-04-03T10:54:13;14.30;30.00
981;DHT22;479;53.514;9.994;2023-04-03T10:56:47;15.00;29.80
981;DHT22;479;53.514;9.994;2023-04-03T10:59:26;14.70;28.80
981;DHT22;479;53.514;9.994;2023-04-03T11:01:59;14.00;28.90
981;DHT22;479;53.514;9.994;2023-04-03T11:04:29;14.10;29.10
981;DHT22;479;53.514;9.994;2023-04-03T11:07:00;14.50;29.40
981;DHT22;479;53.514;9.994;2023-04-03T11:09:29;14.70;29.20
981;DHT22;479;53.514;9.994;2023-04-03T11:12:05;14.40;29.50
981;DHT22;479;53.514;9.994;2023-04-03T11:14:35;14.30;29.60
981;DHT22;479;53.514;9.994;2023-04-03T11:17:13;13.60;29.50
981;DHT22;479;53.514;9.994;2023-04-03T11:19:47;13.60;29.70
981;DHT22;479;53.514;9.994;2023-04-03T11:22:21;13.00;30.40
981;DHT22;479;53.514;9.994;2023-04-03T11:24:56;12.40;31.30
981;DHT22;479;53.514;9.994;2023-04-03T11:27:25;11.70;32.30
981;DHT22;479;53.514;9.994;2023-04-03T11:29:57;11.20;33.70
981;DHT22;479;53.514;9.994;2023-04-03T11:32:43;10.60;34.80
981;DHT22;479;53.514;9.994;2023-04-03T11:35:13;10.30;36.30
981;DHT22;479;53.514;9.994;2023-04-03T11:37:43;10.30;36.30
981;DHT22;479;53.514;9.994;2023-04-03T11:40:21;10.40;36.60
981;DHT22;479;53.514;9.994;2023-04-03T11:42:51;10.10;36.60
981;DHT22;479;53.514;9.994;2023-04-03T11:45:31;10.40;37.40
981;DHT22;479;53.514;9.994;2023-04-03T11:48:02;10.50;37.10
981;DHT22;479;53.514;9.994;2023-04-03T11:50:47;10.70;36.40
981;DHT22;479;53.514;9.994;2023-04-03T11:53:32;10.60;37.20
981;DHT22;479;53.514;9.994;2023-04-03T11:56:26;10.50;37.10
981;DHT22;479;53.514;9.994;2023-04-03T11:59:24;10.10;38.10
981;DHT22;479;53.514;9.994;2023-04-03T12:01:53;10.60;38.20
981;DHT22;479;53.514;9.994;2023-04-03T12:04:22;11.10;38.10
981;DHT22;479;53.514;9.994;2023-04-03T12:07:00;11.50;38.20
981;DHT22;479;53.514;9.994;2023-04-03T12:12:35;11.90;37.60
981;DHT22;479;53.514;9.994;2023-04-03T12:15:25;11.00;37.30
981;DHT22;479;53.514;9.994;2023-04-03T12:17:52;10.50;39.80
981;DHT22;479;53.514;9.994;2023-04-03T12:23:31;10.30;41.00
981;DHT22;479;53.514;9.994;2023-04-03T12:26:05;10.30;41.20
981;DHT22;479;53.514;9.994;2023-04-03T12:28:39;9.90;41.50
981;DHT22;479;53.514;9.994;2023-04-03T12:31:10;9.70;41.60
981;DHT22;479;53.514;9.994;2023-04-03T12:33:59;9.50;42.20
981;DHT22;479;53.514;9.994;2023-04-03T12:36:36;9.70;42.20
981;DHT22;479;53.514;9.994;2023-04-03T12:39:22;9.90;42.00
981;DHT22;479;53.514;9.994;2023-04-03T12:41:56;9.70;42.10
981;DHT22;479;53.514;9.994;2023-04-03T12:44:38;9.90;41.80
981;DHT22;479;53.514;9.994;2023-04-03T12:47:20;9.50;41.70
981;DHT22;479;53.514;9.994;2023-04-03T12:49:49;9.60;42.10
981;DHT22;479;53.514;9.994;2023-04-03T12:52:26;9.80;41.50
981;DHT22;479;53.514;9.994;2023-04-03T12:54:56;9.70;41.60
981;DHT22;479;53.514;9.994;2023-04-03T12:57:26;9.90;41.50
981;DHT22;479;53.514;9.994;2023-04-03T12:59:53;10.10;40.40
981;DHT22;479;53.514;9.994;2023-04-03T13:02:24;10.30;39.20
981;DHT22;479;53.514;9.994;2023-04-03T13:04:53;10.00;36.80
981;DHT22;479;53.514;9.994;2023-04-03T13:07:22;9.90;38.40
981;DHT22;479;53.514;9.994;2023-04-03T13:10:04;9.80;39.40
981;DHT22;479;53.514;9.994;2023-04-03T13:12:31;10.00;38.90
981;DHT22;479;53.514;9.994;2023-04-03T13:15:00;10.00;38.30
981;DHT22;479;53.514;9.994;2023-04-03T13:17:30;10.10;38.70
981;DHT22;479;53.514;9.994;2023-04-03T13:20:13;9.80;39.60
981;DHT22;479;53.514;9.994;2023-04-03T13:22:46;9.80;40.50
981;DHT22;479;53.514;9.994;2023-04-03T13:25:16;9.40;39.50
981;DHT22;479;53.514;9.994;2023-04-03T13:27:44;9.20;39.80
981;DHT22;479;53.514;9.994;2023-04-03T13:30:25;9.10;40.00
981;DHT22;479;53.514;9.994;2023-04-03T13:32:55;9.10;40.70
981;DHT22;479;53.514;9.994;2023-04-03T13:35:32;9.20;40.50
981;DHT22;479;53.514;9.994;2023-04-03T13:38:02;9.20;39.60
981;DHT22;479;53.514;9.994;2023-04-03T13:40:29;9.10;39.40
981;DHT22;479;53.514;9.994;2023-04-03T13:43:02;9.10;39.70
981;DHT22;479;53.514;9.994;2023-04-03T13:45:30;9.20;39.20
981;DHT22;479;53.514;9.994;2023-04-03T13:48:15;9.10;38.90
981;DHT22;479;53.514;9.994;2023-04-03T13:50:59;9.10;39.50
981;DHT22;479;53.514;9.994;2023-04-03T13:53:26;9.20;40.20
981;DHT22;479;53.514;9.994;2023-04-03T13:56:05;9.00;40.30
981;DHT22;479;53.514;9.994;2023-04-03T13:58:33;9.00;40.30
981;DHT22;479;53.514;9.994;2023-04-03T14:01:07;9.10;39.50
981;DHT22;479;53.514;9.994;2023-04-03T14:03:44;9.00;39.40
981;DHT22;479;53.514;9.994;2023-04-03T14:06:14;9.10;39.60
981;DHT22;479;53.514;9.994;2023-04-03T14:08:41;9.10;39.50
981;DHT22;479;53.514;9.994;2023-04-03T14:11:11;9.20;38.90
981;DHT22;479;53.514;9.994;2023-04-03T14:13:39;9.00;37.60
981;DHT22;479;53.514;9.994;2023-04-03T14:16:06;8.90;38.90
981;DHT22;479;53.514;9.994;2023-04-03T14:18:33;8.80;39.00
981;DHT22;479;53.514;9.994;2023-04-03T14:21:03;8.70;38.30
981;DHT22;479;53.514;9.994;2023-04-03T14:23:30;8.70;38.30
981;DHT22;479;53.514;9.994;2023-04-03T14:25:58;8.90;38.80
981;DHT22;479;53.514;9.994;2023-04-03T14:28:26;9.00;38.60
981;DHT22;479;53.514;9.994;2023-04-03T14:30:53;8.90;38.10
981;DHT22;479;53.514;9.994;2023-04-03T14:33:21;8.90;37.60
981;DHT22;479;53.514;9.994;2023-04-03T14:35:48;8.90;37.60
981;DHT22;479;53.514;9.994;2023-04-03T14:38:24;8.90;37.40
981;DHT22;479;53.514;9.994;2023-04-03T14:40:52;8.90;37.20
981;DHT22;479;53.514;9.994;2023-04-03T14:43:19;8.80;37.40
981;DHT22;479;53.514;9.994;2023-04-03T14:45:47;8.90;37.70
981;DHT22;479;53.514;9.994;2023-04-03T14:48:17;8.70;37.20
981;DHT22;479;53.514;9.994;2023-04-03T14:50:46;8.70;37.60
981;DHT22;479;53.514;9.994;2023-04-03T14:53:14;8.70;38.10
981;DHT22;479;53.514;9.994;2023-04-03T14:55:45;8.80;38.10
981;DHT22;479;53.514;9.994;2023-04-03T14:58:14;8.90;38.00
981;DHT22;479;53.514;9.994;2023-04-03T15:00:43;8.80;36.90
981;DHT22;479;53.514;9.994;2023-04-03T15:03:14;8.60;37.10
981;DHT22;479;53.514;9.994;2023-04-03T15:05:45;8.70;38.00
981;DHT22;479;53.514;9.994;2023-04-03T15:08:19;8.70;38.10
981;DHT22;479;53.514;9.994;2023-04-03T15:10:48;8.70;38.50
981;DHT22;479;53.514;9.994;2023-04-03T15:13:15;8.80;38.30
981;DHT22;479;53.514;9.994;2023-04-03T15:15:43;8.60;37.90
981;DHT22;479;53.514;9.994;2023-04-03T15:18:18;8.70;38.30
981;DHT22;479;53.514;9.994;2023-04-03T15:20:49;8.70;38.10
981;DHT22;479;53.514;9.994;2023-04-03T15:23:16;8.60;37.40
981;DHT22;479;53.514;9.994;2023-04-03T15:25:44;8.50;38.10
981;DHT22;479;53.514;9.994;2023-04-03T15:28:18;8.50;39.40
981;DHT22;479;53.514;9.994;2023-04-03T15:30:45;8.50;40.70
981;DHT22;479;53.514;9.994;2023-04-03T15:33:12;8.50;41.60
981;DHT22;479;53.514;9.994;2023-04-03T15:35:41;8.50;41.80
981;DHT22;479;53.514;9.994;2023-04-03T15:38:08;8.60;41.30
981;DHT22;479;53.514;9.994;2023-04-03T15:40:35;8.60;41.80
981;DHT22;479;53.514;9.994;2023-04-03T15:43:02;8.50;42.00
981;DHT22;479;53.514;9.994;2023-04-03T15:45:31;8.30;42.50
981;DHT22;479;53.514;9.994;2023-04-03T15:47:58;8.30;43.00
981;DHT22;479;53.514;9.994;2023-04-03T15:50:25;8.40;43.30
981;DHT22;479;53.514;9.994;2023-04-03T15:52:53;8.30;43.20
981;DHT22;479;53.514;9.994;2023-04-03T15:55:21;8.10;42.90
981;DHT22;479;53.514;9.994;2023-04-03T15:57:48;8.00;43.10
981;DHT22;479;53.514;9.994;2023-04-03T16:00:16;7.90;43.20
981;DHT22;479;53.514;9.994;2023-04-03T16:02:46;8.00;44.00
981;DHT22;479;53.514;9.994;2023-04-03T16:05:14;8.00;44.30
981;DHT22;479;53.514;9.994;2023-04-03T16:07:43;8.00;44.70
981;DHT22;479;53.514;9.994;2023-04-03T16:10:12;7.90;44.90
981;DHT22;479;53.514;9.994;2023-04-03T16:12:40;7.90;45.30
981;DHT22;479;53.514;9.994;2023-04-03T16:15:08;7.80;44.90
981;DHT22;479;53.514;9.994;2023-04-03T16:17:35;7.70;45.00
981;DHT22;479;53.514;9.994;2023-04-03T16:20:08;7.80;45.10
981;DHT22;479;53.514;9.994;2023-04-03T16:22:36;7.80;45.10
981;DHT22;479;53.514;9.994;2023-04-03T16:25:05;7.70;45.60
981;DHT22;479;53.514;9.994;2023-04-03T16:27:32;7.70;46.20
981;DHT22;479;53.514;9.994;2023-04-03T16:29:59;7.70;47.00
981;DHT22;479;53.514;9.994;2023-04-03T16:32:28;7.60;47.30
981;DHT22;479;53.514;9.994;2023-04-03T16:34:56;7.60;47.80
981;DHT22;479;53.514;9.994;2023-04-03T16:37:25;7.60;48.10
981;DHT22;479;53.514;9.994;2023-04-03T16:39:52;7.70;48.70
981;DHT22;479;53.514;9.994;2023-04-03T16:42:19;7.70;48.30
981;DHT22;479;53.514;9.994;2023-04-03T16:44:46;7.60;48.60
981;DHT22;479;53.514;9.994;2023-04-03T16:47:13;7.70;49.50
981;DHT22;479;53.514;9.994;2023-04-03T16:49:44;7.60;48.90
981;DHT22;479;53.514;9.994;2023-04-03T16:52:11;7.60;49.30
981;DHT22;479;53.514;9.994;2023-04-03T16:54:40;7.70;49.10
981;DHT22;479;53.514;9.994;2023-04-03T16:57:07;7.50;48.90
981;DHT22;479;53.514;9.994;2023-04-03T16:59:34;7.40;48.90
981;DHT22;479;53.514;9.994;2023-04-03T17:02:01;7.30;49.00
981;DHT22;479;53.514;9.994;2023-04-03T17:04:28;7.30;49.40
981;DHT22;479;53.514;9.994;2023-04-03T17:06:55;7.20;50.40
981;DHT22;479;53.514;9.994;2023-04-03T17:09:22;7.10;50.70
981;DHT22;479;53.514;9.994;2023-04-03T17:11:50;7.00;51.60
981;DHT22;479;53.514;9.994;2023-04-03T17:14:17;6.90;53.10
981;DHT22;479;53.514;9.994;2023-04-03T17:16:44;6.80;54.50